createdAt,value
2023-03-21T00:00:43.811Z,100024.03
2023-03-21T00:01:46.153Z,100031.91
2023-03-21T00:02:50.047Z,100028.53
2023-03-21T00:03:54.379Z,100028.43
2023-03-21T00:05:05.878Z,100030.14
2023-03-21T00:06:07.497Z,100024.03
2023-03-21T00:07:10.679Z,100031.23
2023-03-21T00:08:18.489Z,100027.67
2023-03-21T00:09:21.979Z,100019.06
2023-03-21T00:10:39.067Z,100022.68
2023-03-21T00:11:30.941Z,100025.25
2023-03-21T00:12:36.254Z,100027.22
2023-03-21T00:13:42.782Z,100028.01
2023-03-21T00:14:47.773Z,100018.48
2023-03-21T00:16:03.982Z,100018.61
2023-03-21T00:16:56.780Z,100015.84
2023-03-21T00:18:03.382Z,100018.70
2023-03-21T00:19:07.420Z,100016.14
2023-03-21T00:20:12.694Z,100009.38
2023-03-21T00:21:39.529Z,100011.28
2023-03-21T00:22:21.793Z,100012.27
2023-03-21T00:23:25.924Z,100007.86
2023-03-21T00:24:29.535Z,100005.40
2023-03-21T00:25:33.676Z,100006.31
2023-03-21T00:26:37.580Z,100001.06
2023-03-21T00:28:01.052Z,99999.28
2023-03-21T00:28:47.001Z,100004.55
2023-03-21T00:29:50.402Z,100003.69
2023-03-21T00:31:00.711Z,100001.98
2023-03-21T00:32:03.573Z,100002.30
2023-03-21T00:33:21.747Z,100001.52
2023-03-21T00:34:17.659Z,100006.20
2023-03-21T00:35:53.549Z,100001.80
2023-03-21T00:36:26.483Z,100007.75
2023-03-21T00:37:29.881Z,100006.93
2023-03-21T00:38:33.499Z,100008.55
2023-03-21T00:39:36.164Z,100004.30
2023-03-21T00:40:48.651Z,100004.43
2023-03-21T00:41:47.590Z,100002.78
2023-03-21T00:42:51.277Z,100002.59
2023-03-21T00:43:55.069Z,99998.26
2023-03-21T00:45:01.443Z,99998.19
2023-03-21T00:46:06.291Z,99998.89
2023-03-21T00:47:11.291Z,99997.11
2023-03-21T00:48:17.576Z,100000.59
2023-03-21T00:49:20.694Z,100001.52
2023-03-21T00:50:24.412Z,100002.66
2023-03-21T00:51:27.866Z,99996.74
2023-03-21T00:52:40.558Z,99992.28
2023-03-21T00:53:36.576Z,100000.28
2023-03-21T00:54:40.574Z,99994.53
2023-03-21T00:55:46.794Z,99995.09
2023-03-21T00:56:51.492Z,99995.95
2023-03-21T00:58:01.691Z,99990.76
2023-03-21T00:59:00.787Z,99996.80
2023-03-21T01:00:06.386Z,99996.74
2023-03-21T01:01:08.952Z,99994.77
2023-03-21T01:02:15.319Z,99995.41
2023-03-21T01:03:25.275Z,99996.13
2023-03-21T01:04:29.974Z,99989.95
2023-03-21T01:05:53.236Z,99987.52
2023-03-21T01:06:56.933Z,99987.39
2023-03-21T01:07:59.380Z,99993.37
2023-03-21T01:09:06.131Z,99988.31
2023-03-21T01:10:11.214Z,99986.41
2023-03-21T01:11:18.250Z,99993.63
2023-03-21T01:12:20.527Z,99984.70
2023-03-21T01:13:25.288Z,99983.84
2023-03-21T01:14:31.803Z,99982.86
2023-03-21T01:15:40.391Z,99988.31
2023-03-21T01:16:43.945Z,99987.02
2023-03-21T01:17:47.218Z,99980.72
2023-03-21T01:18:52.299Z,99978.22
2023-03-21T01:19:57.388Z,99980.50
2023-03-21T01:21:02.737Z,99982.33
2023-03-21T01:22:09.479Z,99979.38
2023-03-21T01:23:13.567Z,99974.06
2023-03-21T01:24:16.213Z,99979.31
2023-03-21T01:25:22.630Z,99973.40
2023-03-21T01:26:25.583Z,99980.37
2023-03-21T01:27:29.816Z,99977.54
2023-03-21T01:28:36.287Z,99979.19
2023-03-21T01:29:41.586Z,99978.45
2023-03-21T01:30:46.112Z,99974.91
2023-03-21T01:31:50.602Z,99973.20
2023-03-21T01:32:53.333Z,99972.55
2023-03-21T01:33:58.088Z,99981.28
2023-03-21T01:35:01.258Z,99975.90
2023-03-21T01:36:12.633Z,99969.66
2023-03-21T01:37:10.479Z,99971.30
2023-03-21T01:38:16.654Z,99968.51
2023-03-21T01:39:20.525Z,99967.82
2023-03-21T01:40:27.568Z,99965.98
2023-03-21T01:41:43.810Z,99969.59
2023-03-21T01:42:40.332Z,99968.51
2023-03-21T01:43:43.095Z,99961.91
2023-03-21T01:44:52.890Z,99961.91
2023-03-21T01:46:07.502Z,99954.02
2023-03-21T01:47:29.331Z,99962.63
2023-03-21T01:48:34.970Z,99954.61
2023-03-21T01:49:39.934Z,99952.73
2023-03-21T01:50:49.125Z,99956.16
2023-03-21T01:52:01.113Z,99953.53
2023-03-21T01:53:04.837Z,99951.06
2023-03-21T01:54:10.844Z,99958.48
2023-03-21T01:55:16.356Z,99954.94
2023-03-21T01:56:28.359Z,99955.20
2023-03-21T01:57:45.198Z,99951.95
2023-03-21T01:58:43.979Z,99950.11
2023-03-21T02:00:08.105Z,99950.97
2023-03-21T02:01:25.725Z,99946.63
2023-03-21T02:02:31.989Z,99953.66
2023-03-21T02:03:40.213Z,99952.08
2023-03-21T02:04:49.235Z,99951.09
2023-03-21T02:06:02.642Z,99944.13
2023-03-21T02:07:12.533Z,99947.55
2023-03-21T02:08:19.874Z,99941.25
2023-03-21T02:09:29.715Z,99941.45
2023-03-21T02:10:35.718Z,99942.23
2023-03-21T02:11:40.142Z,99944.92
2023-03-21T02:12:42.819Z,99941.31
2023-03-21T02:13:47.593Z,99938.69
2023-03-21T02:14:54.414Z,99941.45
2023-03-21T02:16:01.581Z,99942.43
2023-03-21T02:17:22.230Z,99945.84
2023-03-21T02:18:32.398Z,99942.92
2023-03-21T02:19:56.054Z,99937.05
2023-03-21T02:21:14.703Z,99938.03
2023-03-21T02:22:28.664Z,99935.53
2023-03-21T02:23:37.672Z,99939.02
2023-03-21T02:24:48.924Z,99932.12
2023-03-21T02:26:10.095Z,99923.97
2023-03-21T02:27:15.504Z,99934.34
2023-03-21T02:28:20.976Z,99932.15
2023-03-21T02:29:32.414Z,99928.73
2023-03-21T02:30:52.020Z,99932.21
2023-03-21T02:32:12.924Z,99932.08
2023-03-21T02:33:07.713Z,99930.38
2023-03-21T02:34:29.117Z,99931.72
2023-03-21T02:35:47.169Z,99931.56
2023-03-21T02:36:57.056Z,99933.98
2023-03-21T02:38:01.286Z,99933.13
2023-03-21T02:39:24.049Z,99932.41
2023-03-21T02:40:31.579Z,99929.03
2023-03-21T02:41:40.625Z,99935.41
2023-03-21T02:42:54.813Z,99930.47
2023-03-21T02:43:54.012Z,99929.78
2023-03-21T02:45:05.873Z,99928.20
2023-03-21T02:46:24.289Z,99927.67
2023-03-21T02:47:31.246Z,99929.54
2023-03-21T02:48:50.114Z,99931.38
2023-03-21T02:49:54.988Z,99922.36
2023-03-21T02:51:01.628Z,99933.65
2023-03-21T02:52:15.719Z,99923.44
2023-03-21T02:53:16.275Z,99914.83
2023-03-21T02:54:32.584Z,99918.63
2023-03-21T02:55:32.262Z,99920.34
2023-03-21T02:56:38.370Z,99928.28
2023-03-21T02:57:44.316Z,99923.19
2023-03-21T02:58:49.545Z,99927.64
2023-03-21T03:00:00.153Z,99919.83
2023-03-21T03:01:02.096Z,99924.95
2023-03-21T03:02:07.799Z,99927.48
2023-03-21T03:03:20.758Z,99925.02
2023-03-21T03:04:22.159Z,99917.20
2023-03-21T03:05:30.549Z,99924.16
2023-03-21T03:06:37.702Z,99923.09
2023-03-21T03:07:43.942Z,99928.34
2023-03-21T03:09:01.901Z,99922.17
2023-03-21T03:10:09.134Z,99924.67
2023-03-21T03:11:32.353Z,99928.34
2023-03-21T03:12:52.871Z,99930.33
2023-03-21T03:14:25.448Z,99923.44
2023-03-21T03:15:23.380Z,99923.69
2023-03-21T03:16:44.851Z,99920.37
2023-03-21T03:18:04.966Z,99920.49
2023-03-21T03:19:09.733Z,99925.80
2023-03-21T03:20:16.815Z,99929.34
2023-03-21T03:21:22.719Z,99921.53
2023-03-21T03:22:29.128Z,99923.42
2023-03-21T03:23:33.783Z,99930.44
2023-03-21T03:24:45.432Z,99926.05
2023-03-21T03:25:51.125Z,99930.32
2023-03-21T03:26:56.298Z,99927.98
2023-03-21T03:28:05.270Z,99922.79
2023-03-21T03:29:11.508Z,99919.16
2023-03-21T03:30:15.758Z,99923.70
2023-03-21T03:31:26.052Z,99923.77
2023-03-21T03:32:45.265Z,99919.16
2023-03-21T03:33:51.890Z,99930.60
2023-03-21T03:34:58.864Z,99931.52
2023-03-21T03:36:09.285Z,99924.50
2023-03-21T03:37:17.982Z,99929.75
2023-03-21T03:38:23.566Z,99932.37
2023-03-21T03:39:29.264Z,99929.87
2023-03-21T03:40:38.661Z,99929.02
2023-03-21T03:42:07.758Z,99930.72
2023-03-21T03:42:55.159Z,99938.59
2023-03-21T03:44:04.750Z,99938.59
2023-03-21T03:45:11.943Z,99930.66
2023-03-21T03:46:17.690Z,99930.60
2023-03-21T03:47:32.925Z,99931.58
2023-03-21T03:48:32.956Z,99929.08
2023-03-21T03:49:41.345Z,99927.30
2023-03-21T03:50:50.875Z,99939.45
2023-03-21T03:52:03.611Z,99939.45
2023-03-21T03:53:18.901Z,99940.30
2023-03-21T03:54:28.925Z,99941.16
2023-03-21T03:55:35.909Z,99933.98
2023-03-21T03:56:42.395Z,99920.10
2023-03-21T03:57:44.894Z,99930.44
2023-03-21T03:58:48.764Z,99930.44
2023-03-21T03:59:54.338Z,99925.59
2023-03-21T04:00:58.758Z,99927.88
2023-03-21T04:02:02.145Z,99930.50
2023-03-21T04:03:14.934Z,99928.80
2023-03-21T04:04:19.041Z,99932.21
2023-03-21T04:05:25.878Z,99923.42
2023-03-21T04:06:30.435Z,99925.80
2023-03-21T04:07:34.765Z,99926.59
2023-03-21T04:08:39.011Z,99922.33
2023-03-21T04:09:45.084Z,99930.44
2023-03-21T04:10:49.348Z,99926.72
2023-03-21T04:11:52.873Z,99920.27
2023-03-21T04:12:57.451Z,99922.84
2023-03-21T04:14:05.190Z,99928.14
2023-03-21T04:15:11.978Z,99920.27
2023-03-21T04:16:20.343Z,99927.23
2023-03-21T04:17:25.535Z,99921.98
2023-03-21T04:18:28.936Z,99924.70
2023-03-21T04:19:34.041Z,99925.62
2023-03-21T04:20:37.650Z,99924.83
2023-03-21T04:21:41.616Z,99920.62
2023-03-21T04:22:45.242Z,99924.34
2023-03-21T04:23:50.535Z,99933.06
2023-03-21T04:24:55.633Z,99920.68
2023-03-21T04:25:58.189Z,99924.09
2023-03-21T04:27:08.113Z,99918.78
2023-03-21T04:28:13.641Z,99922.20
2023-03-21T04:29:21.433Z,99923.69
2023-03-21T04:30:29.738Z,99919.05
2023-03-21T04:31:43.752Z,99923.19
2023-03-21T04:32:51.215Z,99924.73
2023-03-21T04:33:56.548Z,99920.88
2023-03-21T04:35:01.523Z,99917.17
2023-03-21T04:36:07.391Z,99922.53
2023-03-21T04:37:11.648Z,99917.89
2023-03-21T04:38:15.620Z,99925.61
2023-03-21T04:39:20.445Z,99925.45
2023-03-21T04:40:29.097Z,99909.84
2023-03-21T04:41:32.780Z,99917.96
2023-03-21T04:42:38.791Z,99927.34
2023-03-21T04:43:42.609Z,99919.52
2023-03-21T04:44:48.744Z,99918.38
2023-03-21T04:45:51.605Z,99921.92
2023-03-21T04:46:54.264Z,99918.36
2023-03-21T04:47:59.623Z,99925.19
2023-03-21T04:49:03.686Z,99919.30
2023-03-21T04:50:07.631Z,99920.78
2023-03-21T04:51:11.102Z,99920.30
2023-03-21T04:52:14.931Z,99925.01
2023-03-21T04:53:18.777Z,99929.27
2023-03-21T04:54:22.469Z,99923.64
2023-03-21T04:55:27.496Z,99921.08
2023-03-21T04:56:34.259Z,99928.12
2023-03-21T04:57:39.144Z,99926.97
2023-03-21T04:58:42.762Z,99925.23
2023-03-21T04:59:46.774Z,99926.02
2023-03-21T05:00:53.153Z,99924.63
2023-03-21T05:01:59.868Z,99928.39
2023-03-21T05:03:04.705Z,99935.25
2023-03-21T05:04:08.322Z,99937.30
2023-03-21T05:05:14.956Z,99941.60
2023-03-21T05:06:17.829Z,99941.84
2023-03-21T05:07:22.265Z,99944.73
2023-03-21T05:08:25.903Z,99951.52
2023-03-21T05:09:29.912Z,99950.10
2023-03-21T05:10:35.086Z,99952.36
2023-03-21T05:11:39.337Z,99951.27
2023-03-21T05:12:42.768Z,99951.08
2023-03-21T05:13:46.757Z,99953.09
2023-03-21T05:14:52.141Z,99956.50
2023-03-21T05:15:57.834Z,99949.78
2023-03-21T05:17:03.038Z,99953.78
2023-03-21T05:18:11.018Z,99958.41
2023-03-21T05:19:21.210Z,99961.59
2023-03-21T05:20:25.645Z,99956.69
2023-03-21T05:21:33.446Z,99958.43
2023-03-21T05:22:39.516Z,99960.05
2023-03-21T05:23:44.399Z,99948.27
2023-03-21T05:24:50.114Z,99961.30
2023-03-21T05:25:57.998Z,99961.81
2023-03-21T05:27:17.009Z,99962.66
2023-03-21T05:28:21.407Z,99961.11
2023-03-21T05:29:25.845Z,99964.62
2023-03-21T05:30:31.127Z,99960.09
2023-03-21T05:31:36.308Z,99963.34
2023-03-21T05:32:41.611Z,99961.23
2023-03-21T05:33:49.169Z,99963.70
2023-03-21T05:34:54.228Z,99960.61
2023-03-21T05:35:58.742Z,99960.33
2023-03-21T05:37:03.045Z,99960.16
2023-03-21T05:38:13.203Z,99951.13
2023-03-21T05:39:22.152Z,99955.65
2023-03-21T05:40:32.016Z,99966.95
2023-03-21T05:41:35.941Z,99955.55
2023-03-21T05:42:40.604Z,99942.05
2023-03-21T05:43:49.831Z,99957.55
2023-03-21T05:44:52.096Z,99948.95
2023-03-21T05:45:58.773Z,99948.25
2023-03-21T05:47:07.153Z,99941.19
2023-03-21T05:48:17.200Z,99944.95
2023-03-21T05:49:32.342Z,99944.50
2023-03-21T05:50:37.226Z,99948.10
2023-03-21T05:51:41.963Z,99942.16
2023-03-21T05:52:46.007Z,99939.70
2023-03-21T05:53:49.390Z,99941.30
2023-03-21T05:54:53.001Z,99937.91
2023-03-21T05:55:58.113Z,99946.54
2023-03-21T05:57:06.800Z,99951.44
2023-03-21T05:58:19.902Z,99940.72
2023-03-21T05:59:25.719Z,99942.15
2023-03-21T06:00:32.886Z,99937.30
2023-03-21T06:01:40.873Z,99941.48
2023-03-21T06:02:45.251Z,99951.23
2023-03-21T06:03:53.343Z,99954.84
2023-03-21T06:05:06.438Z,99959.06
2023-03-21T06:06:10.977Z,99963.27
2023-03-21T06:07:15.207Z,99968.28
2023-03-21T06:08:21.992Z,99976.52
2023-03-21T06:09:26.513Z,99972.82
2023-03-21T06:10:32.030Z,99978.63
2023-03-21T06:11:39.159Z,99983.81
2023-03-21T06:12:50.183Z,99979.83
2023-03-21T06:14:03.612Z,99994.45
2023-03-21T06:15:09.391Z,99990.66
2023-03-21T06:16:14.686Z,99982.89
2023-03-21T06:17:18.297Z,99976.45
2023-03-21T06:18:29.534Z,99974.00
2023-03-21T06:19:34.599Z,99976.55
2023-03-21T06:20:39.765Z,99971.66
2023-03-21T06:21:44.030Z,99967.48
2023-03-21T06:22:47.636Z,99976.09
2023-03-21T06:23:52.390Z,99984.87
2023-03-21T06:24:55.894Z,99973.62
2023-03-21T06:25:58.355Z,99978.59
2023-03-21T06:27:04.093Z,99982.34
2023-03-21T06:28:10.071Z,99976.08
2023-03-21T06:29:15.869Z,99979.77
2023-03-21T06:30:21.764Z,99979.57
2023-03-21T06:31:38.833Z,99979.01
2023-03-21T06:32:43.448Z,99976.73
2023-03-21T06:33:49.419Z,99981.75
2023-03-21T06:34:55.437Z,99969.63
2023-03-21T06:35:59.249Z,99962.42
2023-03-21T06:37:05.518Z,99952.98
2023-03-21T06:38:09.941Z,99946.84
2023-03-21T06:39:15.091Z,99955.55
2023-03-21T06:40:19.543Z,99958.41
2023-03-21T06:41:24.077Z,99972.73
2023-03-21T06:42:31.835Z,99974.69
2023-03-21T06:43:40.318Z,99958.67
2023-03-21T06:44:45.567Z,99961.09
2023-03-21T06:45:50.957Z,99955.36
2023-03-21T06:46:55.026Z,99951.56
2023-03-21T06:48:01.155Z,99946.38
2023-03-21T06:49:09.542Z,99950.16
2023-03-21T06:50:12.584Z,99948.83
2023-03-21T06:51:17.986Z,99949.84
2023-03-21T06:52:25.877Z,99946.77
2023-03-21T06:53:30.526Z,99943.81
2023-03-21T06:54:54.601Z,99941.16
2023-03-21T06:55:58.089Z,99930.60
2023-03-21T06:57:02.669Z,99941.20
2023-03-21T06:58:07.948Z,99942.60
2023-03-21T06:59:13.555Z,99941.13
2023-03-21T07:00:19.445Z,99940.11
2023-03-21T07:01:23.054Z,99950.55
2023-03-21T07:02:29.531Z,99957.25
2023-03-21T07:03:43.257Z,99970.86
2023-03-21T07:04:46.211Z,99968.26
2023-03-21T07:05:51.592Z,99982.91
2023-03-21T07:06:55.412Z,99975.50
2023-03-21T07:07:58.496Z,99984.55
2023-03-21T07:09:05.981Z,99996.73
2023-03-21T07:10:10.113Z,99998.17
2023-03-21T07:11:21.548Z,99997.30
2023-03-21T07:12:25.595Z,99995.60
2023-03-21T07:13:43.175Z,99999.45
2023-03-21T07:14:45.456Z,99998.54
2023-03-21T07:15:47.987Z,100009.06
2023-03-21T07:16:51.941Z,100008.09
2023-03-21T07:17:55.177Z,100003.13
2023-03-21T07:18:58.223Z,100003.23
2023-03-21T07:20:01.589Z,100014.63
2023-03-21T07:21:07.079Z,100008.53
2023-03-21T07:22:10.531Z,100011.44
2023-03-21T07:23:13.669Z,100006.64
2023-03-21T07:24:17.292Z,100004.27
2023-03-21T07:25:22.441Z,100003.79
2023-03-21T07:26:26.186Z,100017.41
2023-03-21T07:27:29.476Z,100019.72
2023-03-21T07:28:35.129Z,100010.66
2023-03-21T07:29:38.472Z,100016.25
2023-03-21T07:30:42.590Z,100024.25
2023-03-21T07:31:46.387Z,100010.37
2023-03-21T07:32:51.296Z,100016.35
2023-03-21T07:33:54.999Z,100014.35
2023-03-21T07:35:01.299Z,100017.73
2023-03-21T07:36:04.172Z,100025.89
2023-03-21T07:37:06.767Z,100021.58
2023-03-21T07:38:10.948Z,100021.89
2023-03-21T07:39:19.137Z,100025.27
2023-03-21T07:40:22.462Z,100023.75
2023-03-21T07:41:27.898Z,100022.02
2023-03-21T07:42:35.368Z,100021.89
2023-03-21T07:43:39.476Z,100015.65
2023-03-21T07:44:46.473Z,100023.33
2023-03-21T07:45:50.831Z,100019.84
2023-03-21T07:46:56.084Z,100020.78
2023-03-21T07:48:00.023Z,100015.95
2023-03-21T07:49:03.388Z,100006.22
2023-03-21T07:50:08.021Z,100010.54
2023-03-21T07:51:11.681Z,100010.03
2023-03-21T07:52:13.893Z,100014.60
2023-03-21T07:53:17.054Z,100011.66
2023-03-21T07:54:23.242Z,100016.35
2023-03-21T07:55:26.939Z,100017.58
2023-03-21T07:56:31.370Z,100012.22
2023-03-21T07:57:38.862Z,100019.94
2023-03-21T07:58:43.104Z,100000.78
2023-03-21T07:59:50.977Z,100015.38
2023-03-21T08:00:53.745Z,100007.70
2023-03-21T08:01:57.507Z,100001.67
2023-03-21T08:03:01.848Z,99999.02
2023-03-21T08:04:05.511Z,99999.75
2023-03-21T08:05:11.546Z,100011.88
2023-03-21T08:06:17.943Z,100009.67
2023-03-21T08:07:22.711Z,100010.58
2023-03-21T08:08:26.426Z,100010.23
2023-03-21T08:09:31.242Z,100005.44
2023-03-21T08:10:35.420Z,100004.41
2023-03-21T08:11:40.985Z,100007.27
2023-03-21T08:12:45.760Z,100009.47
2023-03-21T08:13:49.382Z,100012.10
2023-03-21T08:14:53.820Z,100007.53
2023-03-21T08:15:57.649Z,100003.89
2023-03-21T08:17:01.622Z,100013.39
2023-03-21T08:18:04.764Z,100003.78
2023-03-21T08:19:09.100Z,100013.37
2023-03-21T08:20:17.493Z,100011.50
2023-03-21T08:21:23.945Z,100004.78
2023-03-21T08:22:29.054Z,100014.39
2023-03-21T08:23:33.348Z,100008.91
2023-03-21T08:24:36.579Z,100007.92
2023-03-21T08:25:39.738Z,99990.98
2023-03-21T08:26:44.277Z,100003.90
2023-03-21T08:27:48.727Z,99996.11
2023-03-21T08:28:52.449Z,99992.67
2023-03-21T08:29:55.428Z,99989.77
2023-03-21T08:30:58.972Z,99996.00
2023-03-21T08:32:02.327Z,99998.74
2023-03-21T08:33:05.635Z,99988.91
2023-03-21T08:34:10.069Z,99990.66
2023-03-21T08:35:15.806Z,99986.05
2023-03-21T08:36:18.276Z,99980.06
2023-03-21T08:37:21.625Z,99973.33
2023-03-21T08:38:26.526Z,99973.33
2023-03-21T08:39:28.881Z,99972.97
2023-03-21T08:40:32.262Z,99973.02
2023-03-21T08:41:36.807Z,99969.77
2023-03-21T08:42:40.417Z,99964.86
2023-03-21T08:43:43.713Z,99961.56
2023-03-21T08:44:50.338Z,99967.91
2023-03-21T08:45:53.665Z,99961.08
2023-03-21T08:46:57.149Z,99956.71
2023-03-21T08:48:00.687Z,99955.91
2023-03-21T08:49:05.943Z,99955.97
2023-03-21T08:50:11.175Z,99955.13
2023-03-21T08:51:14.616Z,99948.34
2023-03-21T08:52:17.608Z,99954.97
2023-03-21T08:53:20.438Z,99953.22
2023-03-21T08:54:24.193Z,99948.00
2023-03-21T08:55:27.894Z,99942.98
2023-03-21T08:56:36.295Z,99945.38
2023-03-21T08:57:41.347Z,99944.01
2023-03-21T08:58:45.421Z,99944.62
2023-03-21T08:59:48.633Z,99937.45
2023-03-21T09:00:52.850Z,99936.23
2023-03-21T09:01:56.485Z,99930.37
2023-03-21T09:03:03.834Z,99940.47
2023-03-21T09:04:09.371Z,99937.11
2023-03-21T09:05:13.573Z,99940.28
2023-03-21T09:06:17.250Z,99934.09
2023-03-21T09:07:22.210Z,99933.41
2023-03-21T09:08:25.566Z,99935.06
2023-03-21T09:09:28.720Z,99931.82
2023-03-21T09:10:32.385Z,99927.13
2023-03-21T09:11:36.906Z,99927.15
2023-03-21T09:12:40.673Z,99929.93
2023-03-21T09:13:43.786Z,99919.05
2023-03-21T09:14:46.965Z,99922.09
2023-03-21T09:15:51.122Z,99921.78
2023-03-21T09:16:55.034Z,99922.44
2023-03-21T09:17:59.400Z,99925.33
2023-03-21T09:19:04.704Z,99927.88
2023-03-21T09:20:10.776Z,99935.41
2023-03-21T09:21:16.175Z,99931.70
2023-03-21T09:22:21.272Z,99935.91
2023-03-21T09:23:26.290Z,99933.92
2023-03-21T09:24:29.999Z,99932.40
2023-03-21T09:25:35.452Z,99942.02
2023-03-21T09:26:39.216Z,99933.19
2023-03-21T09:27:43.778Z,99935.80
2023-03-21T09:28:47.064Z,99929.48
2023-03-21T09:29:52.416Z,99932.04
2023-03-21T09:30:58.722Z,99938.33
2023-03-21T09:32:01.338Z,99936.48
2023-03-21T09:33:09.085Z,99941.05
2023-03-21T09:34:16.759Z,99940.59
2023-03-21T09:35:20.523Z,99944.53
2023-03-21T09:36:25.142Z,99934.94
2023-03-21T09:37:28.574Z,99931.30
2023-03-21T09:38:36.699Z,99928.64
2023-03-21T09:39:41.444Z,99935.05
2023-03-21T09:40:56.827Z,99935.55
2023-03-21T09:42:05.156Z,99935.52
2023-03-21T09:43:10.642Z,99930.94
2023-03-21T09:44:33.992Z,99925.63
2023-03-21T09:46:53.281Z,99934.83
2023-03-21T09:47:57.464Z,99926.08
2023-03-21T09:49:06.418Z,99934.78
2023-03-21T09:50:16.463Z,99934.47
2023-03-21T09:51:19.311Z,99937.79
2023-03-21T09:52:28.171Z,99929.12
2023-03-21T09:53:38.335Z,99932.71
2023-03-21T09:54:44.496Z,99930.30
2023-03-21T09:55:49.159Z,99925.11
2023-03-21T09:56:54.668Z,99920.41
2023-03-21T09:58:03.462Z,99924.07
2023-03-21T09:59:09.797Z,99923.88
2023-03-21T10:00:18.006Z,99925.23
2023-03-21T10:01:29.131Z,99920.08
2023-03-21T10:02:40.164Z,99926.41
2023-03-21T10:03:44.602Z,99915.84
2023-03-21T10:04:48.122Z,99913.30
2023-03-21T10:05:53.698Z,99924.51
2023-03-21T10:07:00.124Z,99912.27
2023-03-21T10:08:06.245Z,99923.02
2023-03-21T10:09:17.789Z,99912.30
2023-03-21T10:10:26.400Z,99914.99
2023-03-21T10:11:31.911Z,99909.45
2023-03-21T10:12:35.847Z,99914.83
2023-03-21T10:13:43.293Z,99909.28
2023-03-21T10:14:48.674Z,99908.80
2023-03-21T10:16:00.034Z,99907.28
2023-03-21T10:17:16.380Z,99902.58
2023-03-21T10:18:22.701Z,99919.56
2023-03-21T10:19:29.611Z,99917.59
2023-03-21T10:20:35.446Z,99917.55
2023-03-21T10:22:00.329Z,99909.65
2023-03-21T10:22:49.037Z,99910.34
2023-03-21T10:23:54.221Z,99910.80
2023-03-21T10:24:57.725Z,99903.38
2023-03-21T10:26:05.930Z,99904.77
2023-03-21T10:27:12.321Z,99909.17
2023-03-21T10:28:17.302Z,99894.66
2023-03-21T10:29:24.134Z,99908.77
2023-03-21T10:30:33.044Z,99903.02
2023-03-21T10:31:39.672Z,99899.03
2023-03-21T10:32:43.142Z,99899.39
2023-03-21T10:33:49.900Z,99896.39
2023-03-21T10:36:00.769Z,99896.13
2023-03-21T10:37:05.736Z,99889.37
2023-03-21T10:38:10.393Z,99883.15
2023-03-21T10:39:14.518Z,99887.01
2023-03-21T10:40:18.755Z,99892.22
2023-03-21T10:41:22.201Z,99886.39
2023-03-21T10:42:27.019Z,99888.56
2023-03-21T10:43:33.075Z,99883.34
2023-03-21T10:44:38.410Z,99880.81
2023-03-21T10:45:41.828Z,99876.63
2023-03-21T10:46:53.210Z,99876.28
2023-03-21T10:47:58.794Z,99879.98
2023-03-21T10:49:03.285Z,99876.47
2023-03-21T10:50:09.019Z,99870.76
2023-03-21T10:51:13.974Z,99858.84
2023-03-21T10:52:19.567Z,99867.75
2023-03-21T10:53:25.729Z,99876.33
2023-03-21T10:54:30.645Z,99865.56
2023-03-21T10:55:35.850Z,99874.66
2023-03-21T10:56:42.237Z,99873.12
2023-03-21T10:57:46.428Z,99873.62
2023-03-21T10:58:50.602Z,99870.60
2023-03-21T10:59:56.316Z,99876.48
2023-03-21T11:01:02.117Z,99876.92
2023-03-21T11:02:06.522Z,99866.69
2023-03-21T11:03:22.816Z,99866.88
2023-03-21T11:04:29.246Z,99868.40
2023-03-21T11:05:37.373Z,99861.30
2023-03-21T11:06:42.601Z,99864.47
2023-03-21T11:07:45.589Z,99865.03
2023-03-21T11:08:50.758Z,99869.72
2023-03-21T11:09:55.735Z,99864.93
2023-03-21T11:11:08.640Z,99870.95
2023-03-21T11:12:14.358Z,99859.44
2023-03-21T11:13:18.684Z,99864.86
2023-03-21T11:14:26.363Z,99858.73
2023-03-21T11:15:30.858Z,99864.79
2023-03-21T11:16:42.514Z,99858.09
2023-03-21T11:17:46.402Z,99863.86
2023-03-21T11:18:51.708Z,99858.80
2023-03-21T11:19:56.847Z,99862.27
2023-03-21T11:21:01.188Z,99861.42
2023-03-21T11:22:07.730Z,99855.20
2023-03-21T11:23:13.019Z,99861.48
2023-03-21T11:24:19.961Z,99865.66
2023-03-21T11:25:26.603Z,99858.02
2023-03-21T11:26:37.403Z,99856.73
2023-03-21T11:27:42.580Z,99859.62
2023-03-21T11:28:50.729Z,99861.30
2023-03-21T11:29:57.437Z,99851.88
2023-03-21T11:31:04.187Z,99857.27
2023-03-21T11:32:09.463Z,99859.95
2023-03-21T11:33:12.955Z,99860.80
2023-03-21T11:34:17.037Z,99860.17
2023-03-21T11:35:25.853Z,99865.88
2023-03-21T11:36:30.293Z,99859.12
2023-03-21T11:37:35.155Z,99853.12
2023-03-21T11:38:39.058Z,99859.70
2023-03-21T11:39:44.406Z,99856.05
2023-03-21T11:40:48.559Z,99859.45
2023-03-21T11:41:52.497Z,99862.88
2023-03-21T11:43:00.494Z,99854.95
2023-03-21T11:44:05.353Z,99859.13
2023-03-21T11:45:14.100Z,99859.89
2023-03-21T11:46:17.352Z,99856.87
2023-03-21T11:47:25.170Z,99854.13
2023-03-21T11:48:29.056Z,99857.66
2023-03-21T11:49:31.745Z,99853.20
2023-03-21T11:50:36.748Z,99856.36
2023-03-21T11:51:41.995Z,99866.58
2023-03-21T11:52:52.911Z,99859.31
2023-03-21T11:53:58.102Z,99856.09
2023-03-21T11:55:13.363Z,99854.25
2023-03-21T11:56:18.807Z,99854.83
2023-03-21T11:57:26.361Z,99847.84
2023-03-21T11:58:37.576Z,99858.52
2023-03-21T11:59:46.637Z,99855.11
2023-03-21T12:01:01.767Z,99848.25
2023-03-21T12:02:09.710Z,99847.05
2023-03-21T12:03:16.747Z,99838.83
2023-03-21T12:04:37.377Z,99846.05
2023-03-21T12:05:45.121Z,99845.80
2023-03-21T12:06:54.180Z,99849.02
2023-03-21T12:08:11.972Z,99850.70
2023-03-21T12:09:19.953Z,99848.14
2023-03-21T12:10:35.391Z,99855.52
2023-03-21T12:11:40.057Z,99848.98
2023-03-21T12:14:19.423Z,99838.63
2023-03-21T12:15:25.565Z,99846.33
2023-03-21T12:16:37.182Z,99838.97
2023-03-21T12:17:44.829Z,99838.80
2023-03-21T12:18:52.084Z,99837.95
2023-03-21T12:20:02.752Z,99840.68
2023-03-21T12:21:07.716Z,99842.66
2023-03-21T12:22:16.240Z,99836.81
2023-03-21T12:23:33.644Z,99836.44
2023-03-21T12:25:58.598Z,99830.25
2023-03-21T12:27:14.454Z,99830.72
2023-03-21T12:28:32.154Z,99831.73
2023-03-21T12:29:35.944Z,99826.52
2023-03-21T12:30:41.568Z,99832.23
2023-03-21T12:31:56.258Z,99830.89
2023-03-21T12:33:00.582Z,99825.91
2023-03-21T12:34:16.867Z,99829.51
2023-03-21T12:35:22.313Z,99823.77
2023-03-21T12:36:44.095Z,99814.89
2023-03-21T12:38:05.084Z,99817.91
2023-03-21T12:39:13.768Z,99815.06
2023-03-21T12:40:31.385Z,99816.27
2023-03-21T12:41:42.033Z,99818.09
2023-03-21T12:42:48.523Z,99825.84
2023-03-21T12:43:56.625Z,99818.51
2023-03-21T12:45:06.027Z,99816.66
2023-03-21T12:46:07.805Z,99815.42
2023-03-21T12:47:12.861Z,99819.00
2023-03-21T12:48:18.414Z,99817.48
2023-03-21T12:49:22.585Z,99817.64
2023-03-21T12:50:29.007Z,99814.38
2023-03-21T12:51:34.628Z,99817.74
2023-03-21T12:52:43.471Z,99816.38
2023-03-21T12:54:03.741Z,99812.94
2023-03-21T12:55:07.903Z,99816.83
2023-03-21T12:56:13.293Z,99813.25
2023-03-21T12:57:17.531Z,99814.13
2023-03-21T12:58:24.153Z,99819.24
2023-03-21T12:59:30.702Z,99813.81
2023-03-21T13:00:35.423Z,99809.00
2023-03-21T13:01:40.237Z,99811.99
2023-03-21T13:02:51.976Z,99810.99
2023-03-21T13:03:56.453Z,99812.13